Time;durP1;ratioP1;P1;durP2;ratioP2;P2;SDS_P1;SDS_P2;PMS_P1;PMS_P2;Temp;Humidity;BMP_temperature;BMP_pressure;BME280_temperature;BME280_humidity;BME280_pressure;Samples;Min_cycle;Max_cycle;Signal;HPM_P1;HPM_P2
2022/01/22 00:02:20;;;;;;;;;;;4.30;99.90;;;;;;6230019;23;19920;-87
2022/01/22 00:04:50;;;;;;;;;;;4.30;99.90;;;;;;6205987;23;19919;-86
2022/01/22 00:07:53;;;;;;;;;;;5.30;99.90;;;;;;6228691;23;19970;-87
2022/01/22 00:10:29;;;;;;;;;;;4.20;99.90;;;;;;6204894;23;19930;-87
2022/01/22 00:15:35;;;;;;;;;;;4.20;99.90;;;;;;6256256;23;20353;-86
2022/01/22 00:18:09;;;;;;;;;;;4.20;99.90;;;;;;6207111;23;19914;-86
2022/01/22 00:20:47;;;;;;;;;;;4.20;99.90;;;;;;6203231;23;19924;-88
2022/01/22 00:23:20;;;;;;;;;;;4.10;99.90;;;;;;6255623;23;19924;-88
2022/01/22 00:25:48;;;;;;;;;;;4.10;99.90;;;;;;6227913;23;19951;-87
2022/01/22 00:28:17;;;;;;;;;;;4.10;99.90;;;;;;6230066;23;19928;-89
2022/01/22 00:30:54;;;;;;;;;;;4.10;99.90;;;;;;6232333;23;19930;-88
2022/01/22 00:33:24;;;;;;;;;;;4.10;99.90;;;;;;6207965;23;19924;-86
2022/01/22 00:35:52;;;;;;;;;;;4.10;99.90;;;;;;6230542;23;19934;-87
2022/01/22 00:38:27;;;;;;;;;;;4.10;99.90;;;;;;6207980;23;19920;-89
2022/01/22 00:40:56;;;;;;;;;;;4.00;99.90;;;;;;6230735;23;19926;-89
2022/01/22 00:43:28;;;;;;;;;;;4.00;99.90;;;;;;6227257;23;19927;-88
2022/01/22 00:46:03;;;;;;;;;;;4.10;99.90;;;;;;6201504;23;19923;-89
2022/01/22 00:48:33;;;;;;;;;;;4.00;99.90;;;;;;6203965;23;19919;-88
2022/01/22 00:51:03;;;;;;;;;;;3.90;99.90;;;;;;6203388;23;19930;-89
2022/01/22 00:53:34;;;;;;;;;;;3.90;99.90;;;;;;6204828;23;19924;-90
2022/01/22 00:56:07;;;;;;;;;;;3.90;99.90;;;;;;6205117;23;19930;-88
2022/01/22 00:58:36;;;;;;;;;;;3.90;99.90;;;;;;6203278;23;19920;-88
2022/01/22 01:01:05;;;;;;;;;;;3.90;99.90;;;;;;6204503;23;19926;-88
2022/01/22 01:03:35;;;;;;;;;;;3.90;99.90;;;;;;6229769;23;19941;-87
2022/01/22 01:06:03;;;;;;;;;;;3.90;99.90;;;;;;6228520;23;19923;-89
2022/01/22 01:08:35;;;;;;;;;;;3.80;99.90;;;;;;6204631;23;19938;-88
2022/01/22 01:11:04;;;;;;;;;;;2.80;99.90;;;;;;6229984;23;19926;-86
2022/01/22 01:13:44;;;;;;;;;;;3.80;99.90;;;;;;6180506;23;19919;-86
2022/01/22 01:33:27;;;;;;;;;;;3.80;99.90;;;;;;6183400;23;20198;-88
2022/01/22 01:35:57;;;;;;;;;;;3.80;99.90;;;;;;6207926;23;19920;-87
2022/01/22 01:38:25;;;;;;;;;;;3.80;99.90;;;;;;6230038;23;19919;-88
2022/01/22 01:41:06;;;;;;;;;;;3.80;99.90;;;;;;6258287;23;19920;-90
2022/01/22 01:43:40;;;;;;;;;;;3.70;99.90;;;;;;6231731;23;21151;-88
2022/01/22 01:46:43;;;;;;;;;;;3.70;99.90;;;;;;6246121;23;19945;-88
2022/01/22 01:49:16;;;;;;;;;;;3.70;99.90;;;;;;6205365;23;19924;-90
2022/01/22 01:51:45;;;;;;;;;;;3.70;99.90;;;;;;6254752;23;19916;-89
2022/01/22 01:59:42;;;;;;;;;;;3.60;99.90;;;;;;6257356;23;19920;-87
2022/01/22 02:02:15;;;;;;;;;;;3.60;99.90;;;;;;6231118;23;19920;-87
2022/01/22 02:04:43;;;;;;;;;;;3.60;99.90;;;;;;6209804;23;19920;-89
2022/01/22 02:07:14;;;;;;;;;;;3.60;99.90;;;;;;6209523;23;19930;-88
2022/01/22 02:09:50;;;;;;;;;;;3.60;99.90;;;;;;6241011;23;19930;-88
2022/01/22 02:23:44;;;;;;;;;;;3.50;99.90;;;;;;6221638;23;19919;-87
2022/01/22 02:26:15;;;;;;;;;;;3.50;99.90;;;;;;6206512;23;19926;-88
2022/01/22 02:28:51;;;;;;;;;;;3.50;99.90;;;;;;6205566;23;19919;-87
2022/01/22 02:31:37;;;;;;;;;;;3.50;99.90;;;;;;6230811;23;19920;-87
2022/01/22 02:34:24;;;;;;;;;;;3.50;99.90;;;;;;6236232;23;19920;-92
2022/01/22 02:42:27;;;;;;;;;;;3.50;99.90;;;;;;6181207;23;19923;-88
2022/01/22 02:44:56;;;;;;;;;;;3.40;99.90;;;;;;6203364;23;19919;-88
2022/01/22 02:47:27;;;;;;;;;;;3.40;99.90;;;;;;6251090;23;19924;-88
2022/01/22 02:49:56;;;;;;;;;;;3.40;99.90;;;;;;6202983;23;19929;-87
2022/01/22 02:52:25;;;;;;;;;;;3.30;99.90;;;;;;6204770;23;19923;-90
2022/01/22 02:54:55;;;;;;;;;;;3.40;99.90;;;;;;6203883;23;19923;-89
2022/01/22 02:57:23;;;;;;;;;;;3.30;99.90;;;;;;6229301;23;19930;-87
2022/01/22 02:59:55;;;;;;;;;;;3.20;99.90;;;;;;6203041;23;19924;-88
2022/01/22 03:02:22;;;;;;;;;;;3.20;99.90;;;;;;6227455;23;19919;-90
2022/01/22 03:04:55;;;;;;;;;;;3.20;99.90;;;;;;6204041;23;19924;-87
2022/01/22 03:07:26;;;;;;;;;;;3.20;99.90;;;;;;6203984;23;19926;-86
2022/01/22 03:10:00;;;;;;;;;;;3.10;99.90;;;;;;6231485;23;19920;-89
2022/01/22 03:12:50;;;;;;;;;;;3.10;99.90;;;;;;6202827;23;19924;-90
2022/01/22 03:15:36;;;;;;;;;;;3.10;99.90;;;;;;6203692;23;19924;-91
2022/01/22 03:18:14;;;;;;;;;;;3.00;99.90;;;;;;6203353;23;19919;-87
2022/01/22 03:31:24;;;;;;;;;;;2.90;99.90;;;;;;6205241;23;20343;-90
2022/01/22 03:33:53;;;;;;;;;;;2.90;99.90;;;;;;6230843;23;20365;-88
2022/01/22 03:36:22;;;;;;;;;;;2.80;99.90;;;;;;6227453;23;19933;-87
2022/01/22 03:38:50;;;;;;;;;;;2.80;99.90;;;;;;6177590;23;19924;-89
2022/01/22 03:41:19;;;;;;;;;;;2.80;99.90;;;;;;6203111;23;19919;-88
2022/01/22 03:43:52;;;;;;;;;;;2.70;99.90;;;;;;6179375;23;19923;-87
2022/01/22 03:46:23;;;;;;;;;;;2.70;99.90;;;;;;6204591;23;19938;-88
2022/01/22 03:48:59;;;;;;;;;;;2.70;99.90;;;;;;6204725;23;19926;-87
2022/01/22 03:51:29;;;;;;;;;;;2.60;99.90;;;;;;6230086;23;19924;-88
2022/01/22 03:53:58;;;;;;;;;;;2.60;99.90;;;;;;6228671;23;19919;-91
2022/01/22 03:56:26;;;;;;;;;;;2.60;99.90;;;;;;6202383;23;19920;-87
2022/01/22 03:59:17;;;;;;;;;;;2.60;99.90;;;;;;6226013;23;19920;-88
2022/01/22 04:02:24;;;;;;;;;;;2.60;99.90;;;;;;6227432;23;19920;-88
2022/01/22 04:05:02;;;;;;;;;;;2.60;99.90;;;;;;6255017;23;19920;-88
2022/01/22 04:10:24;;;;;;;;;;;2.60;99.90;;;;;;6227385;23;19928;-88
2022/01/22 04:13:01;;;;;;;;;;;2.70;99.90;;;;;;6200722;23;19934;-89
2022/01/22 04:15:31;;;;;;;;;;;2.70;99.90;;;;;;6230649;23;19926;-87
2022/01/22 04:26:43;;;;;;;;;;;3.00;99.90;;;;;;6224157;23;19930;-91
2022/01/22 04:29:12;;;;;;;;;;;3.10;99.90;;;;;;6200875;23;19927;-89
2022/01/22 04:31:39;;;;;;;;;;;3.10;99.90;;;;;;6173413;23;19920;-89
2022/01/22 04:34:07;;;;;;;;;;;3.20;99.90;;;;;;6197233;23;19919;-89
2022/01/22 04:36:36;;;;;;;;;;;3.30;99.90;;;;;;6198312;23;19923;-89
2022/01/22 04:39:04;;;;;;;;;;;3.20;99.90;;;;;;6203979;23;19926;-88
2022/01/22 04:41:32;;;;;;;;;;;3.40;99.90;;;;;;6228363;23;19927;-91
2022/01/22 04:44:06;;;;;;;;;;;3.40;99.90;;;;;;6251904;23;19924;-90
2022/01/22 04:52:40;;;;;;;;;;;3.60;99.90;;;;;;6197640;23;19926;-89
2022/01/22 04:55:11;;;;;;;;;;;3.60;99.90;;;;;;6221123;23;19920;-90
2022/01/22 04:57:42;;;;;;;;;;;3.60;99.90;;;;;;6222831;23;19919;-90
2022/01/22 05:00:14;;;;;;;;;;;3.70;99.90;;;;;;6224795;23;19930;-89
2022/01/22 05:03:17;;;;;;;;;;;3.70;99.90;;;;;;6168289;23;19926;-87
2022/01/22 05:06:17;;;;;;;;;;;3.80;99.90;;;;;;6184098;23;19920;-87
2022/01/22 05:08:55;;;;;;;;;;;3.80;99.90;;;;;;6195544;23;19926;-88
2022/01/22 05:11:30;;;;;;;;;;;3.80;99.90;;;;;;6220349;23;19923;-87
2022/01/22 05:14:02;;;;;;;;;;;3.80;99.90;;;;;;6219622;23;20283;-91
2022/01/22 05:16:30;;;;;;;;;;;3.90;99.90;;;;;;6195235;23;19928;-87
2022/01/22 05:19:09;;;;;;;;;;;3.90;99.90;;;;;;6220950;23;20295;-87
2022/01/22 05:21:39;;;;;;;;;;;3.90;99.90;;;;;;6194818;23;19930;-90
2022/01/22 05:24:11;;;;;;;;;;;4.10;99.90;;;;;;6201106;23;19920;-91
2022/01/22 05:29:59;;;;;;;;;;;4.10;99.90;;;;;;6148060;23;20010;-88
2022/01/22 05:38:36;;;;;;;;;;;4.10;99.90;;;;;;6219534;23;19927;-88
2022/01/22 05:41:04;;;;;;;;;;;4.20;99.90;;;;;;6195616;23;19927;-89
2022/01/22 05:43:33;;;;;;;;;;;4.10;99.90;;;;;;6194664;23;19934;-89
2022/01/22 05:46:02;;;;;;;;;;;4.20;99.90;;;;;;6195534;23;19920;-89
2022/01/22 05:48:30;;;;;;;;;;;4.20;99.90;;;;;;6173509;23;20483;-89
2022/01/22 05:51:01;;;;;;;;;;;4.20;99.90;;;;;;6172545;23;20340;-88
2022/01/22 05:53:54;;;;;;;;;;;4.20;99.90;;;;;;6202512;23;19928;-89
2022/01/22 06:02:00;;;;;;;;;;;4.40;99.90;;;;;;6217325;23;19920;-88
2022/01/22 06:04:51;;;;;;;;;;;4.30;99.90;;;;;;6186928;23;19924;-88
2022/01/22 06:07:21;;;;;;;;;;;4.40;99.90;;;;;;6178099;23;19919;-88
2022/01/22 06:12:43;;;;;;;;;;;4.40;99.90;;;;;;6200330;23;19920;-89
2022/01/22 06:15:12;;;;;;;;;;;2.90;99.90;;;;;;6203664;23;19928;-87
2022/01/22 06:18:03;;;;;;;;;;;4.50;99.90;;;;;;6225199;23;19916;-89
2022/01/22 06:20:32;;;;;;;;;;;4.50;99.90;;;;;;6209916;23;19920;-87
2022/01/22 06:23:02;;;;;;;;;;;4.50;99.90;;;;;;6191864;23;19923;-88
2022/01/22 06:25:30;;;;;;;;;;;4.50;99.90;;;;;;6218328;23;19926;-87
2022/01/22 06:28:04;;;;;;;;;;;4.60;99.90;;;;;;6219336;23;19919;-87
2022/01/22 06:30:36;;;;;;;;;;;4.60;99.90;;;;;;6219356;23;19923;-88
2022/01/22 06:33:04;;;;;;;;;;;4.60;99.90;;;;;;6217850;23;20326;-87
2022/01/22 06:35:35;;;;;;;;;;;4.60;99.90;;;;;;6193424;23;19919;-87
2022/01/22 06:38:07;;;;;;;;;;;5.00;99.90;;;;;;6265803;23;20335;-88
2022/01/22 06:44:01;;;;;;;;;;;4.70;99.90;;;;;;6234976;23;19923;-88
2022/01/22 06:46:56;;;;;;;;;;;4.70;99.90;;;;;;6235679;23;19926;-87
2022/01/22 06:50:09;;;;;;;;;;;4.70;99.90;;;;;;6237121;23;19926;-87
2022/01/22 06:53:18;;;;;;;;;;;4.70;99.90;;;;;;6102003;23;19905;-87
2022/01/22 06:56:00;;;;;;;;;;;4.80;99.90;;;;;;6198330;23;19957;-88
2022/01/22 06:58:50;;;;;;;;;;;4.80;99.90;;;;;;6236880;23;19923;-91
2022/01/22 07:01:22;;;;;;;;;;;4.80;99.90;;;;;;6257231;23;19926;-88
2022/01/22 07:04:04;;;;;;;;;;;4.80;99.90;;;;;;6208823;23;19923;-88
2022/01/22 07:06:48;;;;;;;;;;;5.50;99.90;;;;;;6208986;23;19933;-89
2022/01/22 07:09:18;;;;;;;;;;;5.90;99.90;;;;;;6180851;23;19919;-89
2022/01/22 07:11:49;;;;;;;;;;;4.90;99.90;;;;;;6207627;23;19923;-88
2022/01/22 07:14:26;;;;;;;;;;;4.90;99.90;;;;;;6234671;23;19924;-88
2022/01/22 07:17:11;;;;;;;;;;;4.80;99.90;;;;;;6215856;23;20024;-91
2022/01/22 07:19:54;;;;;;;;;;;5.10;99.90;;;;;;6215008;23;19923;-90
2022/01/22 07:22:48;;;;;;;;;;;4.90;99.90;;;;;;6210401;23;19920;-90
2022/01/22 07:25:59;;;;;;;;;;;3.70;99.90;;;;;;6194247;23;19920;-87
2022/01/22 07:29:09;;;;;;;;;;;4.90;99.90;;;;;;6223067;23;19915;-89
2022/01/22 07:32:01;;;;;;;;;;;5.00;99.90;;;;;;6235826;23;19920;-90
2022/01/22 07:34:45;;;;;;;;;;;5.00;99.90;;;;;;6235266;23;19924;-89
2022/01/22 07:37:23;;;;;;;;;;;6.00;99.90;;;;;;6215011;23;19930;-87
2022/01/22 07:40:30;;;;;;;;;;;5.10;99.90;;;;;;6240856;23;19920;-88
2022/01/22 07:43:48;;;;;;;;;;;5.20;99.90;;;;;;6277094;22;19914;-86
2022/01/22 07:46:33;;;;;;;;;;;5.10;99.90;;;;;;6197733;23;19944;-86
2022/01/22 07:49:19;;;;;;;;;;;5.10;99.90;;;;;;6249070;23;19930;-90
2022/01/22 08:16:33;;;;;;;;;;;5.30;99.90;;;;;;6055841;23;19910;-84
2022/01/22 08:19:40;;;;;;;;;;;;;;;;;;;;;
2022/01/22 08:23:34;;;;;;;;;;;5.30;99.90;;;;;;6182644;23;19931;-84
2022/01/22 08:39:15;;;;;;;;;;;;;;;;;;;;;
2022/01/22 08:47:23;;;;;;;;;;;5.90;99.90;;;;;;5953083;24;19911;-83
2022/01/22 09:00:57;;;;;;;;;;;5.20;99.90;;;;;;5871393;22;11368437;-89
2022/01/22 09:03:57;;;;;;;;;;;5.00;99.90;;;;;;6289884;22;19923;-89
2022/01/22 09:06:46;;;;;;;;;;;5.70;99.90;;;;;;6269852;22;19929;-91
2022/01/22 09:09:38;;;;;;;;;;;5.80;99.90;;;;;;6309775;22;19925;-89
2022/01/22 09:12:59;;;;;;;;;;;5.80;99.90;;;;;;6282481;22;19915;-89
2022/01/22 09:20:29;;;;;;;;;;;5.90;99.90;;;;;;6293017;22;19934;-89
2022/01/22 09:27:42;;;;;;;;;;;6.00;99.90;;;;;;6308505;22;19914;-90
2022/01/22 09:42:08;;;;;;;;;;;6.50;99.90;;;;;;6282151;22;19913;-83
2022/01/22 09:53:57;;;;;;;;;;;5.30;99.90;;;;;;6144958;23;19921;-87
2022/01/22 10:01:23;;;;;;;;;;;;;;;;;;;;;
2022/01/22 10:04:49;;;;;;;;;;;6.50;99.90;;;;;;5980321;24;19927;-86
2022/01/22 10:12:33;;;;;;;;;;;;;;;;;;;;;
2022/01/22 10:16:13;;;;;;;;;;;5.70;99.90;;;;;;6037271;23;19917;-85
2022/01/22 10:19:54;;;;;;;;;;;6.00;99.90;;;;;;6040589;23;19910;-85
2022/01/22 10:32:04;;;;;;;;;;;6.50;99.90;;;;;;6088298;23;19932;-86
2022/01/22 10:47:50;;;;;;;;;;;6.40;99.90;;;;;;6115579;23;19916;-86
2022/01/22 10:51:08;;;;;;;;;;;8.20;99.90;;;;;;6072142;23;20434;-85
2022/01/22 10:55:20;;;;;;;;;;;;;;;;;;;;;
2022/01/22 11:02:41;;;;;;;;;;;5.40;99.90;;;;;;6087702;23;19925;-85
2022/01/22 11:06:43;;;;;;;;;;;;;;;;;;;;;
2022/01/22 11:10:36;;;;;;;;;;;7.00;99.90;;;;;;6212560;23;19924;-86
2022/01/22 11:17:22;;;;;;;;;;;;;;;;;;;;;
2022/01/22 11:23:21;;;;;;;;;;;6.60;99.90;;;;;;6242119;22;19925;-84
2022/01/22 11:25:57;;;;;;;;;;;6.80;99.90;;;;;;6287369;22;19929;-87
2022/01/22 11:28:34;;;;;;;;;;;6.80;99.90;;;;;;6267045;22;19903;-85
2022/01/22 11:31:06;;;;;;;;;;;6.30;99.90;;;;;;6268613;22;19915;-86
2022/01/22 11:33:43;;;;;;;;;;;7.00;99.90;;;;;;6273860;22;19919;-85
2022/01/22 11:36:43;;;;;;;;;;;6.90;99.90;;;;;;6274549;22;19920;-80
2022/01/22 11:39:28;;;;;;;;;;;7.10;99.90;;;;;;6269885;22;19942;-84
2022/01/22 11:46:26;;;;;;;;;;;6.70;99.90;;;;;;6286695;22;19929;-86
2022/01/22 11:49:14;;;;;;;;;;;6.60;99.90;;;;;;6268096;22;19927;-85
2022/01/22 11:52:15;;;;;;;;;;;7.30;99.90;;;;;;6266717;22;19920;-85
2022/01/22 11:55:10;;;;;;;;;;;7.20;99.90;;;;;;6269623;22;19919;-86
2022/01/22 11:58:10;;;;;;;;;;;6.30;99.90;;;;;;6291817;22;19919;-83
2022/01/22 12:09:54;;;;;;;;;;;7.20;99.90;;;;;;6008307;23;19914;-81
2022/01/22 12:16:58;;;;;;;;;;;7.30;99.90;;;;;;6051468;23;19906;-81
2022/01/22 12:20:29;;;;;;;;;;;7.40;99.90;;;;;;6035166;23;19932;-82
2022/01/22 12:23:06;;;;;;;;;;;7.40;99.90;;;;;;6032590;23;19928;-82
2022/01/22 12:25:44;;;;;;;;;;;7.40;99.90;;;;;;6054921;23;19926;-83
2022/01/22 12:28:40;;;;;;;;;;;7.40;99.90;;;;;;6106105;23;19920;-80
2022/01/22 12:31:16;;;;;;;;;;;8.70;99.90;;;;;;6116016;23;19921;-80
2022/01/22 12:33:47;;;;;;;;;;;7.40;99.90;;;;;;6179803;22;19925;-80
2022/01/22 12:36:23;;;;;;;;;;;8.10;99.90;;;;;;6290879;22;19945;-81
2022/01/22 12:39:10;;;;;;;;;;;7.50;99.90;;;;;;6289107;22;19929;-84
2022/01/22 12:41:50;;;;;;;;;;;7.50;99.90;;;;;;6242058;22;19926;-81
2022/01/22 12:44:35;;;;;;;;;;;7.50;99.90;;;;;;6297120;22;19919;-80
2022/01/22 12:47:13;;;;;;;;;;;7.50;99.90;;;;;;6299379;22;19909;-82
2022/01/22 12:49:44;;;;;;;;;;;7.60;99.90;;;;;;6293719;22;19923;-83
2022/01/22 12:52:20;;;;;;;;;;;7.50;99.90;;;;;;6306156;22;19923;-83
2022/01/22 12:54:57;;;;;;;;;;;7.60;99.90;;;;;;6301529;22;20343;-83
2022/01/22 12:58:24;;;;;;;;;;;7.50;99.90;;;;;;6301525;22;19929;-82
2022/01/22 13:01:11;;;;;;;;;;;7.60;99.90;;;;;;6262966;22;19928;-81
2022/01/22 13:03:49;;;;;;;;;;;7.70;99.90;;;;;;6262213;22;20353;-83
2022/01/22 13:06:47;;;;;;;;;;;7.60;99.90;;;;;;6290320;22;19923;-83
2022/01/22 13:09:43;;;;;;;;;;;7.60;99.90;;;;;;6289475;22;19920;-82
2022/01/22 13:12:15;;;;;;;;;;;7.50;99.90;;;;;;6288485;22;19919;-82
2022/01/22 13:14:45;;;;;;;;;;;7.50;99.90;;;;;;6287708;22;19919;-83
2022/01/22 13:17:16;;;;;;;;;;;8.00;99.90;;;;;;6299817;22;19923;-83
2022/01/22 13:19:53;;;;;;;;;;;8.60;99.90;;;;;;6320094;22;19924;-82
2022/01/22 13:22:38;;;;;;;;;;;7.50;99.90;;;;;;6292471;22;19919;-81
2022/01/22 13:25:15;;;;;;;;;;;9.50;99.90;;;;;;6299536;22;19927;-82
2022/01/22 13:27:58;;;;;;;;;;;7.50;99.90;;;;;;6289625;22;19926;-83
2022/01/22 13:30:42;;;;;;;;;;;7.50;99.90;;;;;;6285725;22;19937;-81
2022/01/22 13:33:34;;;;;;;;;;;6.80;99.90;;;;;;6286400;22;19930;-83
2022/01/22 13:36:33;;;;;;;;;;;7.60;99.90;;;;;;6297356;22;21704;-83
2022/01/22 13:39:32;;;;;;;;;;;7.50;99.90;;;;;;6293778;22;20308;-82
2022/01/22 13:47:47;;;;;;;;;;;8.20;99.90;;;;;;6275939;22;19929;-83
2022/01/22 13:50:46;;;;;;;;;;;7.60;99.90;;;;;;6255272;22;19923;-83
2022/01/22 13:53:18;;;;;;;;;;;7.70;99.90;;;;;;6299216;22;19929;-83
2022/01/22 13:56:05;;;;;;;;;;;7.40;99.90;;;;;;6275249;22;19929;-82
2022/01/22 13:58:35;;;;;;;;;;;7.30;99.90;;;;;;6271154;22;19929;-82
2022/01/22 14:01:27;;;;;;;;;;;7.40;99.90;;;;;;6282896;22;19923;-82
2022/01/22 14:04:07;;;;;;;;;;;7.50;99.90;;;;;;6306494;22;19922;-81
2022/01/22 14:06:38;;;;;;;;;;;7.90;99.90;;;;;;6280594;22;19925;-82
2022/01/22 14:09:16;;;;;;;;;;;7.20;99.90;;;;;;6268648;22;19919;-82
2022/01/22 14:12:03;;;;;;;;;;;7.50;99.90;;;;;;6302533;22;20262;-83
2022/01/22 14:14:50;;;;;;;;;;;8.40;99.90;;;;;;6294739;22;19922;-81
2022/01/22 14:17:29;;;;;;;;;;;7.30;99.90;;;;;;6305557;22;19969;-82
2022/01/22 14:19:58;;;;;;;;;;;7.40;99.90;;;;;;6293344;22;19926;-82
2022/01/22 14:22:26;;;;;;;;;;;7.20;99.90;;;;;;6292910;22;19950;-82
2022/01/22 14:25:29;;;;;;;;;;;7.10;99.90;;;;;;6291751;22;19929;-82
2022/01/22 14:28:00;;;;;;;;;;;6.00;99.90;;;;;;6268084;22;19919;-83
2022/01/22 14:30:36;;;;;;;;;;;6.20;99.90;;;;;;6291730;22;20355;-82
2022/01/22 14:33:08;;;;;;;;;;;7.40;99.90;;;;;;6267735;22;19969;-82
2022/01/22 14:36:07;;;;;;;;;;;7.10;99.90;;;;;;6244561;22;19918;-82
2022/01/22 14:38:44;;;;;;;;;;;7.10;99.90;;;;;;6330193;22;19929;-82
2022/01/22 14:46:56;;;;;;;;;;;5.40;99.90;;;;;;6328746;22;19922;-82
2022/01/22 14:49:33;;;;;;;;;;;7.10;99.90;;;;;;6324408;22;19919;-81
2022/01/22 14:52:12;;;;;;;;;;;7.00;99.90;;;;;;6293975;22;19927;-82
2022/01/22 14:54:46;;;;;;;;;;;7.10;99.90;;;;;;6270164;22;19919;-82
2022/01/22 14:57:21;;;;;;;;;;;7.10;99.90;;;;;;6306427;22;19922;-83
2022/01/22 14:59:52;;;;;;;;;;;7.10;99.90;;;;;;6295996;22;19923;-82
2022/01/22 15:02:24;;;;;;;;;;;8.10;99.90;;;;;;6265027;22;19919;-82
2022/01/22 15:05:03;;;;;;;;;;;7.00;99.90;;;;;;6318914;22;19925;-82
2022/01/22 15:07:38;;;;;;;;;;;8.20;99.90;;;;;;6263203;22;19923;-83
2022/01/22 15:10:24;;;;;;;;;;;7.40;99.90;;;;;;6264635;22;19922;-82
2022/01/22 15:12:53;;;;;;;;;;;6.90;99.90;;;;;;6266164;22;19925;-82
2022/01/22 15:15:45;;;;;;;;;;;5.60;99.90;;;;;;6319279;22;19918;-82
2022/01/22 15:18:39;;;;;;;;;;;5.90;99.90;;;;;;6290224;22;19923;-82
2022/01/22 15:21:07;;;;;;;;;;;7.00;99.90;;;;;;6323406;22;19923;-82
2022/01/22 15:23:36;;;;;;;;;;;6.90;99.90;;;;;;6287222;22;19919;-81
2022/01/22 15:26:05;;;;;;;;;;;6.90;99.90;;;;;;6238602;22;19919;-82
2022/01/22 15:28:43;;;;;;;;;;;6.90;99.90;;;;;;6325755;22;19933;-82
2022/01/22 15:31:35;;;;;;;;;;;7.00;99.90;;;;;;6288425;22;19918;-80
2022/01/22 15:37:08;;;;;;;;;;;8.10;99.90;;;;;;6283332;22;19929;-81
2022/01/22 15:39:41;;;;;;;;;;;5.60;99.90;;;;;;6259347;22;19933;-83
2022/01/22 15:42:21;;;;;;;;;;;7.10;99.90;;;;;;6284719;22;19919;-82
2022/01/22 15:44:51;;;;;;;;;;;7.70;99.90;;;;;;6296108;22;19923;-83
2022/01/22 15:47:42;;;;;;;;;;;7.40;99.90;;;;;;6274643;22;19930;-83
2022/01/22 15:50:13;;;;;;;;;;;7.30;99.90;;;;;;6294814;22;20322;-83
2022/01/22 15:53:04;;;;;;;;;;;6.80;99.90;;;;;;6257468;22;19929;-83
2022/01/22 15:55:44;;;;;;;;;;;7.00;99.90;;;;;;6258102;22;20199;-82
2022/01/22 15:58:26;;;;;;;;;;;6.90;99.90;;;;;;6284059;22;19919;-82
2022/01/22 16:00:56;;;;;;;;;;;6.10;99.90;;;;;;6293164;22;19923;-82
2022/01/22 16:03:31;;;;;;;;;;;7.30;99.90;;;;;;6295532;22;19925;-81
2022/01/22 16:06:08;;;;;;;;;;;6.90;99.90;;;;;;6294302;22;19923;-81
2022/01/22 16:08:45;;;;;;;;;;;7.20;99.90;;;;;;6257844;22;19933;-82
2022/01/22 16:11:47;;;;;;;;;;;6.90;99.90;;;;;;6267415;22;19919;-82
2022/01/22 16:14:47;;;;;;;;;;;6.90;99.90;;;;;;6295900;22;19927;-83
2022/01/22 16:17:30;;;;;;;;;;;6.90;99.90;;;;;;6284702;22;19923;-82
2022/01/22 16:20:01;;;;;;;;;;;7.20;99.90;;;;;;6288685;22;19927;-81
2022/01/22 16:22:35;;;;;;;;;;;9.60;99.90;;;;;;6268868;22;19922;-81
2022/01/22 16:25:12;;;;;;;;;;;6.90;99.90;;;;;;6282349;22;19919;-82
2022/01/22 16:27:40;;;;;;;;;;;6.80;99.90;;;;;;6294217;22;19920;-81
2022/01/22 16:30:27;;;;;;;;;;;6.90;99.90;;;;;;6294665;22;19923;-81
2022/01/22 16:32:57;;;;;;;;;;;6.80;99.90;;;;;;6282645;22;19923;-78
2022/01/22 16:35:28;;;;;;;;;;;6.90;99.90;;;;;;6254265;22;19919;-82
2022/01/22 16:38:05;;;;;;;;;;;6.10;99.90;;;;;;6232943;22;19933;-82
2022/01/22 16:40:46;;;;;;;;;;;7.60;99.90;;;;;;6232761;22;20263;-82
2022/01/22 16:43:19;;;;;;;;;;;6.90;99.90;;;;;;6229848;22;19919;-82
2022/01/22 16:54:51;;;;;;;;;;;7.00;99.90;;;;;;6269825;22;19923;-77
2022/01/22 16:57:29;;;;;;;;;;;7.00;99.90;;;;;;6297821;22;19923;-83
2022/01/22 17:00:05;;;;;;;;;;;7.00;99.90;;;;;;6259486;22;19923;-81
2022/01/22 17:02:37;;;;;;;;;;;7.10;99.90;;;;;;6264770;22;19919;-82
2022/01/22 17:05:10;;;;;;;;;;;7.00;99.90;;;;;;6288163;22;19924;-81
2022/01/22 17:08:44;;;;;;;;;;;6.90;99.90;;;;;;6273771;22;19923;-84
2022/01/22 17:11:05;;;;;;;;;;;5.90;99.90;;;;;;6227317;22;19926;-84
2022/01/22 17:16:34;;;;;;;;;;;7.00;99.90;;;;;;6279607;22;19926;-83
2022/01/22 17:19:04;;;;;;;;;;;6.80;99.90;;;;;;6214255;22;19924;-79
2022/01/22 17:21:32;;;;;;;;;;;7.70;99.90;;;;;;6271991;22;20206;-82
2022/01/22 17:24:06;;;;;;;;;;;6.80;99.90;;;;;;6261832;22;19944;-82
2022/01/22 17:26:39;;;;;;;;;;;6.70;99.90;;;;;;6237362;22;19919;-83
2022/01/22 17:29:16;;;;;;;;;;;6.60;99.90;;;;;;6264630;22;19919;-82
2022/01/22 17:31:46;;;;;;;;;;;6.60;99.90;;;;;;6237052;22;19923;-82
2022/01/22 17:34:17;;;;;;;;;;;6.60;99.90;;;;;;6300947;22;20175;-82
2022/01/22 17:36:45;;;;;;;;;;;8.10;99.90;;;;;;6269155;22;19923;-82
2022/01/22 17:39:16;;;;;;;;;;;6.60;99.90;;;;;;6302859;22;19919;-82
2022/01/22 17:41:46;;;;;;;;;;;6.60;99.90;;;;;;6290001;22;19925;-83
2022/01/22 17:44:48;;;;;;;;;;;6.60;99.90;;;;;;6290935;22;19925;-83
2022/01/22 17:47:21;;;;;;;;;;;5.00;99.90;;;;;;6288384;22;19934;-83
2022/01/22 17:49:51;;;;;;;;;;;6.70;99.90;;;;;;6299704;22;19930;-83
2022/01/22 17:52:19;;;;;;;;;;;6.70;99.90;;;;;;6291956;22;19919;-82
2022/01/22 17:54:57;;;;;;;;;;;6.60;99.90;;;;;;6300788;22;19923;-84
2022/01/22 17:57:31;;;;;;;;;;;5.90;99.90;;;;;;6263671;22;19923;-82
2022/01/22 18:00:06;;;;;;;;;;;6.90;99.90;;;;;;6301375;22;19929;-82
2022/01/22 18:02:42;;;;;;;;;;;6.50;99.90;;;;;;6265742;22;19923;-82
2022/01/22 18:05:29;;;;;;;;;;;;;;;;;;;;;
2022/01/22 18:08:24;;;;;;;;;;;6.90;99.90;;;;;;6288789;22;19933;-83
2022/01/22 18:11:01;;;;;;;;;;;6.60;99.90;;;;;;6288888;22;19946;-81
2022/01/22 18:13:43;;;;;;;;;;;6.80;99.90;;;;;;6288439;22;20195;-82
2022/01/22 18:16:19;;;;;;;;;;;6.60;99.90;;;;;;6264711;22;19923;-87
2022/01/22 18:19:00;;;;;;;;;;;6.80;99.90;;;;;;6292004;22;19919;-83
2022/01/22 18:21:35;;;;;;;;;;;7.00;99.90;;;;;;6262948;22;20338;-82
2022/01/22 18:24:03;;;;;;;;;;;6.10;99.90;;;;;;6267119;22;19941;-82
2022/01/22 18:26:33;;;;;;;;;;;6.90;99.90;;;;;;6266048;22;19924;-82
2022/01/22 18:29:05;;;;;;;;;;;6.80;99.90;;;;;;6299372;22;19923;-82
2022/01/22 18:31:35;;;;;;;;;;;6.70;99.90;;;;;;6300193;22;19933;-83
2022/01/22 18:34:08;;;;;;;;;;;6.70;99.90;;;;;;6297876;22;19929;-82
2022/01/22 18:36:39;;;;;;;;;;;6.80;99.90;;;;;;6305491;22;19922;-82
2022/01/22 18:39:11;;;;;;;;;;;7.00;99.90;;;;;;6241571;22;19925;-83
2022/01/22 18:41:48;;;;;;;;;;;5.80;99.90;;;;;;6292507;22;19919;-82
2022/01/22 18:44:17;;;;;;;;;;;7.50;99.90;;;;;;6320978;22;19923;-82
2022/01/22 18:46:47;;;;;;;;;;;6.80;99.90;;;;;;6322511;22;19922;-82
2022/01/22 18:49:22;;;;;;;;;;;6.80;99.90;;;;;;6293542;22;19972;-82
2022/01/22 18:52:04;;;;;;;;;;;6.70;99.90;;;;;;6292502;22;19923;-83
2022/01/22 18:54:36;;;;;;;;;;;6.80;99.90;;;;;;6323059;22;20130;-81
2022/01/22 18:57:07;;;;;;;;;;;6.80;99.90;;;;;;6322828;22;19919;-82
2022/01/22 18:59:36;;;;;;;;;;;6.70;99.90;;;;;;6332577;22;19919;-82
2022/01/22 19:02:05;;;;;;;;;;;6.80;99.90;;;;;;6301078;22;19926;-80
2022/01/22 19:04:46;;;;;;;;;;;6.90;99.90;;;;;;6291321;22;20363;-82
2022/01/22 19:07:15;;;;;;;;;;;6.90;99.90;;;;;;6298596;22;19929;-84
2022/01/22 19:09:45;;;;;;;;;;;5.90;99.90;;;;;;6293051;22;19977;-84
2022/01/22 19:12:20;;;;;;;;;;;7.20;99.90;;;;;;6244329;22;19933;-83
2022/01/22 19:14:51;;;;;;;;;;;6.70;99.90;;;;;;6294081;22;19927;-83
2022/01/22 19:17:23;;;;;;;;;;;8.40;99.90;;;;;;6290011;22;19922;-83
2022/01/22 19:19:52;;;;;;;;;;;6.90;99.90;;;;;;6264815;22;19929;-83
2022/01/22 19:22:35;;;;;;;;;;;7.20;99.90;;;;;;6329292;22;19945;-82
2022/01/22 19:30:32;;;;;;;;;;;6.90;99.90;;;;;;6318740;22;19925;-83
2022/01/22 19:33:02;;;;;;;;;;;7.00;99.90;;;;;;6321197;22;20296;-82
2022/01/22 19:35:30;;;;;;;;;;;6.30;99.90;;;;;;6289893;22;19925;-82
2022/01/22 19:37:58;;;;;;;;;;;7.10;99.90;;;;;;6267293;22;20352;-83
2022/01/22 19:40:29;;;;;;;;;;;7.20;99.90;;;;;;6262490;22;19926;-83
2022/01/22 19:43:06;;;;;;;;;;;7.00;99.90;;;;;;6208803;22;20268;-82
2022/01/22 19:45:40;;;;;;;;;;;7.00;99.90;;;;;;6273666;22;20636;-82
2022/01/22 19:48:12;;;;;;;;;;;7.00;99.90;;;;;;6260276;22;20389;-83
2022/01/22 19:50:43;;;;;;;;;;;7.10;99.90;;;;;;6261871;22;19919;-82
2022/01/22 19:53:14;;;;;;;;;;;7.00;99.90;;;;;;6235737;22;19923;-82
2022/01/22 19:55:45;;;;;;;;;;;7.00;99.90;;;;;;6246706;22;20260;-85
2022/01/22 19:58:16;;;;;;;;;;;7.30;99.90;;;;;;6298228;22;20706;-82
2022/01/22 20:00:47;;;;;;;;;;;7.20;99.90;;;;;;6246403;22;19920;-81
2022/01/22 20:03:16;;;;;;;;;;;7.10;99.90;;;;;;6263602;22;19919;-82
2022/01/22 20:05:45;;;;;;;;;;;7.00;99.90;;;;;;6292190;22;19926;-82
2022/01/22 20:08:19;;;;;;;;;;;7.00;99.90;;;;;;6273986;22;19924;-83
2022/01/22 20:10:52;;;;;;;;;;;7.00;99.90;;;;;;6263695;22;20114;-83
2022/01/22 20:13:30;;;;;;;;;;;7.10;99.90;;;;;;6235311;22;19923;-82
2022/01/22 20:16:00;;;;;;;;;;;7.00;99.90;;;;;;6291700;22;19919;-83
2022/01/22 20:18:32;;;;;;;;;;;7.10;99.90;;;;;;6272808;22;19929;-81
2022/01/22 20:21:11;;;;;;;;;;;7.10;99.90;;;;;;6264188;22;19919;-82